sensor_id;sensor_type;location;lat;lon;timestamp;temperature;humidity
25352;DHT22;13304;48.464;8.712;2023-03-01T00:01:11;2.70;69.20
25352;DHT22;13304;48.464;8.712;2023-03-01T00:03:38;2.70;69.40
25352;DHT22;13304;48.464;8.712;2023-03-01T00:06:04;2.70;69.20
25352;DHT22;13304;48.464;8.712;2023-03-01T00:08:30;2.70;69.30
25352;DHT22;13304;48.464;8.712;2023-03-01T00:11:04;2.60;69.30
25352;DHT22;13304;48.464;8.712;2023-03-01T00:13:31;2.60;69.40
25352;DHT22;13304;48.464;8.712;2023-03-01T00:15:57;2.60;69.50
25352;DHT22;13304;48.464;8.712;2023-03-01T00:18:23;2.60;69.50
25352;DHT22;13304;48.464;8.712;2023-03-01T00:20:53;2.60;69.60
25352;DHT22;13304;48.464;8.712;2023-03-01T00:23:20;2.50;69.70
25352;DHT22;13304;48.464;8.712;2023-03-01T00:25:45;2.50;69.80
25352;DHT22;13304;48.464;8.712;2023-03-01T00:28:11;2.50;69.70
25352;DHT22;13304;48.464;8.712;2023-03-01T00:30:37;2.50;69.60
25352;DHT22;13304;48.464;8.712;2023-03-01T00:33:03;2.50;69.90
25352;DHT22;13304;48.464;8.712;2023-03-01T00:35:29;2.50;69.80
25352;DHT22;13304;48.464;8.712;2023-03-01T00:37:57;2.50;69.80
25352;DHT22;13304;48.464;8.712;2023-03-01T00:40:28;2.50;70.00
25352;DHT22;13304;48.464;8.712;2023-03-01T00:42:54;2.40;70.10
25352;DHT22;13304;48.464;8.712;2023-03-01T00:45:20;2.40;69.80
25352;DHT22;13304;48.464;8.712;2023-03-01T00:47:45;2.40;70.00
25352;DHT22;13304;48.464;8.712;2023-03-01T00:50:11;2.40;69.90
25352;DHT22;13304;48.464;8.712;2023-03-01T00:52:37;2.30;70.20
25352;DHT22;13304;48.464;8.712;2023-03-01T00:55:04;2.40;70.20
25352;DHT22;13304;48.464;8.712;2023-03-01T00:57:30;2.40;70.20
25352;DHT22;13304;48.464;8.712;2023-03-01T00:59:56;2.40;70.10
25352;DHT22;13304;48.464;8.712;2023-03-01T01:02:22;2.40;70.00
25352;DHT22;13304;48.464;8.712;2023-03-01T01:04:48;2.30;70.00
25352;DHT22;13304;48.464;8.712;2023-03-01T01:07:14;2.30;70.30
25352;DHT22;13304;48.464;8.712;2023-03-01T01:09:41;2.30;70.70
25352;DHT22;13304;48.464;8.712;2023-03-01T01:12:07;2.30;70.50
25352;DHT22;13304;48.464;8.712;2023-03-01T01:14:33;2.20;70.70
25352;DHT22;13304;48.464;8.712;2023-03-01T01:16:58;2.20;70.70
25352;DHT22;13304;48.464;8.712;2023-03-01T01:19:25;2.20;70.70
25352;DHT22;13304;48.464;8.712;2023-03-01T01:21:51;2.20;70.50
25352;DHT22;13304;48.464;8.712;2023-03-01T01:24:17;2.20;70.50
25352;DHT22;13304;48.464;8.712;2023-03-01T01:26:44;2.20;70.80
25352;DHT22;13304;48.464;8.712;2023-03-01T01:29:10;2.10;70.80
25352;DHT22;13304;48.464;8.712;2023-03-01T01:31:38;2.20;70.80
25352;DHT22;13304;48.464;8.712;2023-03-01T01:34:06;2.10;70.90
25352;DHT22;13304;48.464;8.712;2023-03-01T01:36:32;2.10;70.80
25352;DHT22;13304;48.464;8.712;2023-03-01T01:38:58;2.10;70.70
25352;DHT22;13304;48.464;8.712;2023-03-01T01:41:26;2.10;71.00
25352;DHT22;13304;48.464;8.712;2023-03-01T01:46:46;2.00;71.80
25352;DHT22;13304;48.464;8.712;2023-03-01T01:51:43;2.00;71.70
25352;DHT22;13304;48.464;8.712;2023-03-01T01:54:22;2.00;71.90
25352;DHT22;13304;48.464;8.712;2023-03-01T01:56:59;2.00;71.90
25352;DHT22;13304;48.464;8.712;2023-03-01T01:59:29;1.90;71.80
25352;DHT22;13304;48.464;8.712;2023-03-01T02:01:59;2.00;71.80
25352;DHT22;13304;48.464;8.712;2023-03-01T02:04:25;1.90;71.70
25352;DHT22;13304;48.464;8.712;2023-03-01T02:07:05;1.90;71.90
25352;DHT22;13304;48.464;8.712;2023-03-01T02:09:33;1.90;72.40
25352;DHT22;13304;48.464;8.712;2023-03-01T02:12:00;1.90;72.00
25352;DHT22;13304;48.464;8.712;2023-03-01T02:14:26;1.90;72.00
25352;DHT22;13304;48.464;8.712;2023-03-01T02:16:52;1.90;72.10
25352;DHT22;13304;48.464;8.712;2023-03-01T02:22:27;1.80;72.40
25352;DHT22;13304;48.464;8.712;2023-03-01T02:30:31;1.70;72.50
25352;DHT22;13304;48.464;8.712;2023-03-01T02:32:59;1.80;72.70
25352;DHT22;13304;48.464;8.712;2023-03-01T02:35:38;1.80;72.60
25352;DHT22;13304;48.464;8.712;2023-03-01T02:38:07;1.80;72.70
25352;DHT22;13304;48.464;8.712;2023-03-01T02:40:34;1.70;73.10
25352;DHT22;13304;48.464;8.712;2023-03-01T02:43:02;1.80;73.40
25352;DHT22;13304;48.464;8.712;2023-03-01T02:45:29;1.80;73.20
25352;DHT22;13304;48.464;8.712;2023-03-01T02:47:56;1.80;73.30
25352;DHT22;13304;48.464;8.712;2023-03-01T02:50:53;1.80;73.40
25352;DHT22;13304;48.464;8.712;2023-03-01T02:56:28;1.80;73.80
25352;DHT22;13304;48.464;8.712;2023-03-01T02:58:54;1.90;73.80
25352;DHT22;13304;48.464;8.712;2023-03-01T03:01:21;1.90;73.60
25352;DHT22;13304;48.464;8.712;2023-03-01T03:03:47;1.90;73.60
25352;DHT22;13304;48.464;8.712;2023-03-01T03:06:13;1.90;73.70
25352;DHT22;13304;48.464;8.712;2023-03-01T03:08:39;2.00;73.50
25352;DHT22;13304;48.464;8.712;2023-03-01T03:11:04;2.00;73.70
25352;DHT22;13304;48.464;8.712;2023-03-01T03:13:30;2.00;73.80
25352;DHT22;13304;48.464;8.712;2023-03-01T03:15:58;2.00;73.90
25352;DHT22;13304;48.464;8.712;2023-03-01T03:18:24;2.00;73.90
25352;DHT22;13304;48.464;8.712;2023-03-01T03:20:53;2.10;73.80
25352;DHT22;13304;48.464;8.712;2023-03-01T03:23:20;2.10;74.10
25352;DHT22;13304;48.464;8.712;2023-03-01T03:25:50;2.10;73.80
25352;DHT22;13304;48.464;8.712;2023-03-01T03:28:16;2.10;73.60
25352;DHT22;13304;48.464;8.712;2023-03-01T03:30:43;2.10;73.70
25352;DHT22;13304;48.464;8.712;2023-03-01T03:33:10;2.20;73.80
25352;DHT22;13304;48.464;8.712;2023-03-01T03:35:48;2.20;73.70
25352;DHT22;13304;48.464;8.712;2023-03-01T03:38:16;2.20;73.80
25352;DHT22;13304;48.464;8.712;2023-03-01T03:41:03;2.20;73.50
25352;DHT22;13304;48.464;8.712;2023-03-01T03:43:30;2.20;73.60
25352;DHT22;13304;48.464;8.712;2023-03-01T03:45:57;2.30;73.50
25352;DHT22;13304;48.464;8.712;2023-03-01T03:48:23;2.30;73.30
25352;DHT22;13304;48.464;8.712;2023-03-01T03:50:54;2.30;73.20
25352;DHT22;13304;48.464;8.712;2023-03-01T03:53:22;2.30;73.30
25352;DHT22;13304;48.464;8.712;2023-03-01T03:55:49;2.40;73.60
25352;DHT22;13304;48.464;8.712;2023-03-01T03:58:16;2.40;73.20
25352;DHT22;13304;48.464;8.712;2023-03-01T04:00:46;2.40;73.20
25352;DHT22;13304;48.464;8.712;2023-03-01T04:03:13;2.40;73.10
25352;DHT22;13304;48.464;8.712;2023-03-01T04:05:41;2.40;73.00
25352;DHT22;13304;48.464;8.712;2023-03-01T04:08:07;2.40;73.00
25352;DHT22;13304;48.464;8.712;2023-03-01T04:10:43;2.40;73.20
25352;DHT22;13304;48.464;8.712;2023-03-01T04:13:14;2.40;73.10
25352;DHT22;13304;48.464;8.712;2023-03-01T04:15:49;2.40;73.30
25352;DHT22;13304;48.464;8.712;2023-03-01T04:18:17;2.50;73.20
25352;DHT22;13304;48.464;8.712;2023-03-01T04:20:44;2.40;73.10
25352;DHT22;13304;48.464;8.712;2023-03-01T04:23:16;2.50;73.10
25352;DHT22;13304;48.464;8.712;2023-03-01T04:25:56;2.50;73.20
25352;DHT22;13304;48.464;8.712;2023-03-01T04:28:24;2.50;73.40
25352;DHT22;13304;48.464;8.712;2023-03-01T04:30:52;2.50;73.10
25352;DHT22;13304;48.464;8.712;2023-03-01T04:33:18;2.50;73.10
25352;DHT22;13304;48.464;8.712;2023-03-01T04:35:44;2.50;73.20
25352;DHT22;13304;48.464;8.712;2023-03-01T04:38:10;2.50;73.00
25352;DHT22;13304;48.464;8.712;2023-03-01T04:40:37;2.60;73.00
25352;DHT22;13304;48.464;8.712;2023-03-01T04:43:03;2.50;73.00
25352;DHT22;13304;48.464;8.712;2023-03-01T04:45:31;2.60;73.30
25352;DHT22;13304;48.464;8.712;2023-03-01T04:47:56;2.60;73.10
25352;DHT22;13304;48.464;8.712;2023-03-01T04:50:24;2.50;73.40
25352;DHT22;13304;48.464;8.712;2023-03-01T04:52:51;2.60;73.30
25352;DHT22;13304;48.464;8.712;2023-03-01T04:55:18;2.60;73.40
25352;DHT22;13304;48.464;8.712;2023-03-01T04:57:43;2.60;73.30
25352;DHT22;13304;48.464;8.712;2023-03-01T05:00:11;2.60;73.40
25352;DHT22;13304;48.464;8.712;2023-03-01T05:05:20;2.60;73.30
25352;DHT22;13304;48.464;8.712;2023-03-01T05:07:47;2.60;73.50
25352;DHT22;13304;48.464;8.712;2023-03-01T05:10:12;2.60;74.10
25352;DHT22;13304;48.464;8.712;2023-03-01T05:12:38;2.60;73.50
25352;DHT22;13304;48.464;8.712;2023-03-01T05:15:05;2.60;73.40
25352;DHT22;13304;48.464;8.712;2023-03-01T05:17:33;2.60;73.30
25352;DHT22;13304;48.464;8.712;2023-03-01T05:19:59;2.60;73.60
25352;DHT22;13304;48.464;8.712;2023-03-01T05:22:26;2.60;73.50
25352;DHT22;13304;48.464;8.712;2023-03-01T05:24:52;2.60;73.70
25352;DHT22;13304;48.464;8.712;2023-03-01T05:27:19;2.60;73.50
25352;DHT22;13304;48.464;8.712;2023-03-01T05:29:47;2.60;73.40
25352;DHT22;13304;48.464;8.712;2023-03-01T05:32:13;2.60;73.50
25352;DHT22;13304;48.464;8.712;2023-03-01T05:34:41;2.70;73.60
25352;DHT22;13304;48.464;8.712;2023-03-01T05:37:07;2.60;73.70
25352;DHT22;13304;48.464;8.712;2023-03-01T05:39:34;2.60;73.70
25352;DHT22;13304;48.464;8.712;2023-03-01T05:42:01;2.60;73.70
25352;DHT22;13304;48.464;8.712;2023-03-01T05:44:28;2.60;73.90
25352;DHT22;13304;48.464;8.712;2023-03-01T05:46:55;2.60;73.80
25352;DHT22;13304;48.464;8.712;2023-03-01T05:49:22;2.60;74.20
25352;DHT22;13304;48.464;8.712;2023-03-01T05:51:52;2.60;74.00
25352;DHT22;13304;48.464;8.712;2023-03-01T05:54:20;2.60;73.90
25352;DHT22;13304;48.464;8.712;2023-03-01T05:56:46;2.60;73.90
25352;DHT22;13304;48.464;8.712;2023-03-01T05:59:12;2.60;74.50
25352;DHT22;13304;48.464;8.712;2023-03-01T06:01:39;2.60;74.00
25352;DHT22;13304;48.464;8.712;2023-03-01T06:04:05;2.60;74.10
25352;DHT22;13304;48.464;8.712;2023-03-01T06:06:35;2.60;74.20
25352;DHT22;13304;48.464;8.712;2023-03-01T06:09:03;2.60;74.20
25352;DHT22;13304;48.464;8.712;2023-03-01T06:11:29;2.60;74.20
25352;DHT22;13304;48.464;8.712;2023-03-01T06:13:54;2.60;74.40
25352;DHT22;13304;48.464;8.712;2023-03-01T06:16:20;2.60;74.20
25352;DHT22;13304;48.464;8.712;2023-03-01T06:18:46;2.60;74.40
25352;DHT22;13304;48.464;8.712;2023-03-01T06:21:14;2.60;74.70
25352;DHT22;13304;48.464;8.712;2023-03-01T06:23:39;2.60;74.70
25352;DHT22;13304;48.464;8.712;2023-03-01T06:26:07;2.60;74.40
25352;DHT22;13304;48.464;8.712;2023-03-01T06:28:33;2.60;74.60
25352;DHT22;13304;48.464;8.712;2023-03-01T06:30:59;2.60;74.50
25352;DHT22;13304;48.464;8.712;2023-03-01T06:33:24;2.70;74.50
25352;DHT22;13304;48.464;8.712;2023-03-01T06:35:51;2.70;74.40
25352;DHT22;13304;48.464;8.712;2023-03-01T06:38:19;2.70;74.60
25352;DHT22;13304;48.464;8.712;2023-03-01T06:40:51;2.70;74.50
25352;DHT22;13304;48.464;8.712;2023-03-01T06:43:16;2.70;74.70
25352;DHT22;13304;48.464;8.712;2023-03-01T06:45:42;2.70;74.90
25352;DHT22;13304;48.464;8.712;2023-03-01T06:48:08;2.70;75.10
25352;DHT22;13304;48.464;8.712;2023-03-01T06:50:35;2.70;74.90
25352;DHT22;13304;48.464;8.712;2023-03-01T06:53:01;2.70;75.00
25352;DHT22;13304;48.464;8.712;2023-03-01T06:55:27;2.80;75.10
25352;DHT22;13304;48.464;8.712;2023-03-01T06:58:00;2.80;75.10
25352;DHT22;13304;48.464;8.712;2023-03-01T07:00:27;2.70;75.30
25352;DHT22;13304;48.464;8.712;2023-03-01T07:02:53;2.80;75.30
25352;DHT22;13304;48.464;8.712;2023-03-01T07:05:19;2.80;75.00
25352;DHT22;13304;48.464;8.712;2023-03-01T07:07:45;2.80;75.00
25352;DHT22;13304;48.464;8.712;2023-03-01T07:10:11;2.80;75.10
25352;DHT22;13304;48.464;8.712;2023-03-01T07:12:37;2.90;75.00
25352;DHT22;13304;48.464;8.712;2023-03-01T07:15:03;2.90;74.90
25352;DHT22;13304;48.464;8.712;2023-03-01T07:17:30;2.90;74.90
25352;DHT22;13304;48.464;8.712;2023-03-01T07:19:56;3.00;74.80
25352;DHT22;13304;48.464;8.712;2023-03-01T07:22:22;2.90;75.00
25352;DHT22;13304;48.464;8.712;2023-03-01T07:24:48;3.00;75.10
25352;DHT22;13304;48.464;8.712;2023-03-01T07:27:14;3.00;74.80
25352;DHT22;13304;48.464;8.712;2023-03-01T07:29:39;3.00;74.60
25352;DHT22;13304;48.464;8.712;2023-03-01T07:32:06;2.90;74.90
25352;DHT22;13304;48.464;8.712;2023-03-01T07:34:32;2.90;74.80
25352;DHT22;13304;48.464;8.712;2023-03-01T07:36:58;2.90;74.80
25352;DHT22;13304;48.464;8.712;2023-03-01T07:39:23;2.90;75.00
25352;DHT22;13304;48.464;8.712;2023-03-01T07:41:50;2.90;75.10
25352;DHT22;13304;48.464;8.712;2023-03-01T07:44:15;2.80;75.70
25352;DHT22;13304;48.464;8.712;2023-03-01T07:46:43;2.80;75.40
25352;DHT22;13304;48.464;8.712;2023-03-01T07:49:09;2.80;75.50
25352;DHT22;13304;48.464;8.712;2023-03-01T07:51:36;2.90;75.60
25352;DHT22;13304;48.464;8.712;2023-03-01T07:54:01;2.90;75.40
25352;DHT22;13304;48.464;8.712;2023-03-01T07:56:27;2.90;75.60
25352;DHT22;13304;48.464;8.712;2023-03-01T07:58:53;2.90;75.30
25352;DHT22;13304;48.464;8.712;2023-03-01T08:01:21;3.00;75.20
25352;DHT22;13304;48.464;8.712;2023-03-01T08:03:47;3.00;75.10
25352;DHT22;13304;48.464;8.712;2023-03-01T08:06:16;3.00;75.40
25352;DHT22;13304;48.464;8.712;2023-03-01T08:08:42;3.00;75.40
25352;DHT22;13304;48.464;8.712;2023-03-01T08:11:11;3.10;75.00
25352;DHT22;13304;48.464;8.712;2023-03-01T08:13:37;3.00;75.20
25352;DHT22;13304;48.464;8.712;2023-03-01T08:16:05;3.10;75.00
25352;DHT22;13304;48.464;8.712;2023-03-01T08:18:31;3.10;75.70
25352;DHT22;13304;48.464;8.712;2023-03-01T08:21:04;3.10;75.00
25352;DHT22;13304;48.464;8.712;2023-03-01T08:23:30;3.20;74.80
25352;DHT22;13304;48.464;8.712;2023-03-01T08:26:07;3.20;74.80
25352;DHT22;13304;48.464;8.712;2023-03-01T08:28:33;3.20;74.70
25352;DHT22;13304;48.464;8.712;2023-03-01T08:30:59;3.30;74.60
25352;DHT22;13304;48.464;8.712;2023-03-01T08:33:24;3.30;74.30
25352;DHT22;13304;48.464;8.712;2023-03-01T08:35:51;3.30;74.30
25352;DHT22;13304;48.464;8.712;2023-03-01T08:38:17;3.30;74.50
25352;DHT22;13304;48.464;8.712;2023-03-01T08:40:43;3.40;74.50
25352;DHT22;13304;48.464;8.712;2023-03-01T08:43:08;3.40;74.10
25352;DHT22;13304;48.464;8.712;2023-03-01T08:45:36;3.40;74.20
25352;DHT22;13304;48.464;8.712;2023-03-01T08:48:02;3.50;74.50
25352;DHT22;13304;48.464;8.712;2023-03-01T08:50:28;3.50;74.20
25352;DHT22;13304;48.464;8.712;2023-03-01T08:52:54;3.50;74.00
25352;DHT22;13304;48.464;8.712;2023-03-01T08:55:19;3.50;74.10
25352;DHT22;13304;48.464;8.712;2023-03-01T08:57:45;3.60;74.10
25352;DHT22;13304;48.464;8.712;2023-03-01T09:00:11;3.60;74.00
25352;DHT22;13304;48.464;8.712;2023-03-01T09:02:37;3.70;74.10
25352;DHT22;13304;48.464;8.712;2023-03-01T09:05:04;3.70;73.90
25352;DHT22;13304;48.464;8.712;2023-03-01T09:07:30;3.70;73.80
25352;DHT22;13304;48.464;8.712;2023-03-01T09:09:55;3.70;73.80
25352;DHT22;13304;48.464;8.712;2023-03-01T09:12:21;3.80;73.40
25352;DHT22;13304;48.464;8.712;2023-03-01T09:14:47;3.90;73.40
25352;DHT22;13304;48.464;8.712;2023-03-01T09:17:13;3.90;73.20
25352;DHT22;13304;48.464;8.712;2023-03-01T09:19:39;3.90;73.00
25352;DHT22;13304;48.464;8.712;2023-03-01T09:22:05;3.90;72.40
25352;DHT22;13304;48.464;8.712;2023-03-01T09:24:30;3.80;71.60
25352;DHT22;13304;48.464;8.712;2023-03-01T09:26:56;3.90;71.90
25352;DHT22;13304;48.464;8.712;2023-03-01T09:29:23;4.00;72.30
25352;DHT22;13304;48.464;8.712;2023-03-01T09:31:49;4.00;72.10
25352;DHT22;13304;48.464;8.712;2023-03-01T09:34:14;4.00;71.80
25352;DHT22;13304;48.464;8.712;2023-03-01T09:36:44;4.00;71.70
25352;DHT22;13304;48.464;8.712;2023-03-01T09:39:10;4.00;71.50
25352;DHT22;13304;48.464;8.712;2023-03-01T09:42:00;4.10;71.70
25352;DHT22;13304;48.464;8.712;2023-03-01T09:44:45;4.10;71.60
25352;DHT22;13304;48.464;8.712;2023-03-01T09:47:20;4.10;71.30
25352;DHT22;13304;48.464;8.712;2023-03-01T09:49:57;4.20;71.60
25352;DHT22;13304;48.464;8.712;2023-03-01T09:55:20;4.30;71.20
25352;DHT22;13304;48.464;8.712;2023-03-01T09:57:56;4.40;71.10
25352;DHT22;13304;48.464;8.712;2023-03-01T10:00:43;4.40;70.40
25352;DHT22;13304;48.464;8.712;2023-03-01T10:03:32;4.50;70.00
25352;DHT22;13304;48.464;8.712;2023-03-01T10:06:09;4.60;70.30
25352;DHT22;13304;48.464;8.712;2023-03-01T10:11:37;4.70;70.00
25352;DHT22;13304;48.464;8.712;2023-03-01T10:14:13;4.80;70.10
25352;DHT22;13304;48.464;8.712;2023-03-01T10:16:54;4.90;70.30
25352;DHT22;13304;48.464;8.712;2023-03-01T10:19:43;4.90;69.50
25352;DHT22;13304;48.464;8.712;2023-03-01T10:22:29;5.00;68.90
25352;DHT22;13304;48.464;8.712;2023-03-01T10:25:03;5.00;68.10
25352;DHT22;13304;48.464;8.712;2023-03-01T10:27:54;5.10;68.30
25352;DHT22;13304;48.464;8.712;2023-03-01T10:30:34;5.10;67.70
25352;DHT22;13304;48.464;8.712;2023-03-01T10:33:01;5.10;67.80
25352;DHT22;13304;48.464;8.712;2023-03-01T10:35:31;5.20;68.10
25352;DHT22;13304;48.464;8.712;2023-03-01T10:37:59;5.20;68.10
25352;DHT22;13304;48.464;8.712;2023-03-01T10:40:28;5.10;68.10
25352;DHT22;13304;48.464;8.712;2023-03-01T10:42:57;5.20;68.60
25352;DHT22;13304;48.464;8.712;2023-03-01T10:48:12;5.20;67.50
25352;DHT22;13304;48.464;8.712;2023-03-01T10:50:43;5.20;67.70
25352;DHT22;13304;48.464;8.712;2023-03-01T10:53:23;5.30;67.40
25352;DHT22;13304;48.464;8.712;2023-03-01T10:56:12;5.20;67.40
25352;DHT22;13304;48.464;8.712;2023-03-01T11:01:35;5.30;67.40
25352;DHT22;13304;48.464;8.712;2023-03-01T11:06:37;5.30;67.30
25352;DHT22;13304;48.464;8.712;2023-03-01T11:11:44;5.40;67.00
25352;DHT22;13304;48.464;8.712;2023-03-01T11:14:17;5.50;67.40
25352;DHT22;13304;48.464;8.712;2023-03-01T11:16:49;5.40;66.90
25352;DHT22;13304;48.464;8.712;2023-03-01T11:19:23;5.60;67.00
25352;DHT22;13304;48.464;8.712;2023-03-01T11:21:55;5.70;66.50
25352;DHT22;13304;48.464;8.712;2023-03-01T11:24:52;5.60;66.30
25352;DHT22;13304;48.464;8.712;2023-03-01T11:27:28;5.60;66.10
25352;DHT22;13304;48.464;8.712;2023-03-01T11:30:03;5.70;66.30
25352;DHT22;13304;48.464;8.712;2023-03-01T11:32:39;5.70;66.40
25352;DHT22;13304;48.464;8.712;2023-03-01T11:37:51;5.70;66.90
25352;DHT22;13304;48.464;8.712;2023-03-01T11:40:29;5.80;66.80
25352;DHT22;13304;48.464;8.712;2023-03-01T11:46:02;5.90;66.40
25352;DHT22;13304;48.464;8.712;2023-03-01T12:01:08;6.10;65.90
25352;DHT22;13304;48.464;8.712;2023-03-01T12:04:10;6.20;65.90
25352;DHT22;13304;48.464;8.712;2023-03-01T12:20:36;6.50;64.40
25352;DHT22;13304;48.464;8.712;2023-03-01T12:25:57;6.70;64.40
25352;DHT22;13304;48.464;8.712;2023-03-01T12:37:17;6.70;63.60
25352;DHT22;13304;48.464;8.712;2023-03-01T12:53:04;6.80;63.60
25352;DHT22;13304;48.464;8.712;2023-03-01T12:55:39;6.80;64.20
25352;DHT22;13304;48.464;8.712;2023-03-01T12:58:10;6.80;63.60
25352;DHT22;13304;48.464;8.712;2023-03-01T13:11:49;6.90;62.80
25352;DHT22;13304;48.464;8.712;2023-03-01T13:16:47;7.10;63.10
25352;DHT22;13304;48.464;8.712;2023-03-01T13:19:36;7.10;62.80
25352;DHT22;13304;48.464;8.712;2023-03-01T13:22:25;7.10;63.10
25352;DHT22;13304;48.464;8.712;2023-03-01T13:25:22;7.20;62.60
25352;DHT22;13304;48.464;8.712;2023-03-01T13:27:48;7.20;62.40
25352;DHT22;13304;48.464;8.712;2023-03-01T13:35:48;7.30;62.10
25352;DHT22;13304;48.464;8.712;2023-03-01T13:41:15;7.40;61.50
25352;DHT22;13304;48.464;8.712;2023-03-01T13:43:44;7.40;61.90
25352;DHT22;13304;48.464;8.712;2023-03-01T13:48:43;7.40;61.80
25352;DHT22;13304;48.464;8.712;2023-03-01T13:51:11;7.50;61.00
25352;DHT22;13304;48.464;8.712;2023-03-01T13:53:43;7.50;61.10
25352;DHT22;13304;48.464;8.712;2023-03-01T13:56:24;7.50;61.00
25352;DHT22;13304;48.464;8.712;2023-03-01T13:58:55;7.50;61.40
25352;DHT22;13304;48.464;8.712;2023-03-01T14:01:34;7.50;60.90
25352;DHT22;13304;48.464;8.712;2023-03-01T14:04:01;7.50;60.70
25352;DHT22;13304;48.464;8.712;2023-03-01T14:06:32;7.60;61.20
25352;DHT22;13304;48.464;8.712;2023-03-01T14:09:23;7.60;60.60
25352;DHT22;13304;48.464;8.712;2023-03-01T14:17:49;7.70;60.50
25352;DHT22;13304;48.464;8.712;2023-03-01T14:20:27;7.70;60.60
25352;DHT22;13304;48.464;8.712;2023-03-01T14:22:55;7.70;60.10
25352;DHT22;13304;48.464;8.712;2023-03-01T14:28:12;7.80;60.20
25352;DHT22;13304;48.464;8.712;2023-03-01T14:30:46;7.70;60.00
25352;DHT22;13304;48.464;8.712;2023-03-01T14:33:38;7.80;60.00
25352;DHT22;13304;48.464;8.712;2023-03-01T14:36:11;7.80;59.90
25352;DHT22;13304;48.464;8.712;2023-03-01T14:38:41;7.80;59.50
25352;DHT22;13304;48.464;8.712;2023-03-01T14:41:22;7.90;59.70
25352;DHT22;13304;48.464;8.712;2023-03-01T14:43:55;7.90;59.70
25352;DHT22;13304;48.464;8.712;2023-03-01T14:46:30;7.90;59.30
25352;DHT22;13304;48.464;8.712;2023-03-01T14:51:38;7.90;59.20
25352;DHT22;13304;48.464;8.712;2023-03-01T14:54:16;7.90;59.40
25352;DHT22;13304;48.464;8.712;2023-03-01T14:56:46;7.90;59.20
25352;DHT22;13304;48.464;8.712;2023-03-01T14:59:12;8.00;59.60
25352;DHT22;13304;48.464;8.712;2023-03-01T15:01:40;7.90;59.30
25352;DHT22;13304;48.464;8.712;2023-03-01T15:04:11;8.00;59.60
25352;DHT22;13304;48.464;8.712;2023-03-01T15:06:38;8.00;59.00
25352;DHT22;13304;48.464;8.712;2023-03-01T15:09:04;8.10;59.40
25352;DHT22;13304;48.464;8.712;2023-03-01T15:11:32;8.10;59.70
25352;DHT22;13304;48.464;8.712;2023-03-01T15:13:58;8.10;59.40
25352;DHT22;13304;48.464;8.712;2023-03-01T15:16:30;8.10;59.30
25352;DHT22;13304;48.464;8.712;2023-03-01T15:19:01;8.00;58.70
25352;DHT22;13304;48.464;8.712;2023-03-01T15:21:36;8.10;59.00
25352;DHT22;13304;48.464;8.712;2023-03-01T15:26:54;8.10;59.00
25352;DHT22;13304;48.464;8.712;2023-03-01T15:29:26;8.20;59.00
25352;DHT22;13304;48.464;8.712;2023-03-01T15:32:33;8.20;59.20
25352;DHT22;13304;48.464;8.712;2023-03-01T15:38:55;8.10;59.50
25352;DHT22;13304;48.464;8.712;2023-03-01T15:43:52;8.10;58.80
25352;DHT22;13304;48.464;8.712;2023-03-01T15:46:34;8.20;59.00
25352;DHT22;13304;48.464;8.712;2023-03-01T15:49:35;8.20;59.00
25352;DHT22;13304;48.464;8.712;2023-03-01T15:52:03;8.10;59.40
25352;DHT22;13304;48.464;8.712;2023-03-01T15:54:29;8.20;59.70
25352;DHT22;13304;48.464;8.712;2023-03-01T15:56:56;8.20;59.70
25352;DHT22;13304;48.464;8.712;2023-03-01T15:59:22;8.20;59.60
25352;DHT22;13304;48.464;8.712;2023-03-01T16:01:48;8.20;59.70
25352;DHT22;13304;48.464;8.712;2023-03-01T16:04:16;8.20;59.80
25352;DHT22;13304;48.464;8.712;2023-03-01T16:06:47;8.10;59.80
25352;DHT22;13304;48.464;8.712;2023-03-01T16:09:20;8.10;59.60
25352;DHT22;13304;48.464;8.712;2023-03-01T16:11:46;8.10;59.80
25352;DHT22;13304;48.464;8.712;2023-03-01T16:14:13;8.10;60.00
25352;DHT22;13304;48.464;8.712;2023-03-01T16:16:40;8.00;59.80
25352;DHT22;13304;48.464;8.712;2023-03-01T16:19:05;8.00;60.60
25352;DHT22;13304;48.464;8.712;2023-03-01T16:21:31;8.00;60.00
25352;DHT22;13304;48.464;8.712;2023-03-01T16:23:57;8.00;60.00
25352;DHT22;13304;48.464;8.712;2023-03-01T16:26:23;8.00;60.00
25352;DHT22;13304;48.464;8.712;2023-03-01T16:28:48;7.90;59.90
25352;DHT22;13304;48.464;8.712;2023-03-01T16:31:18;7.90;60.10
25352;DHT22;13304;48.464;8.712;2023-03-01T16:33:44;7.80;59.90
25352;DHT22;13304;48.464;8.712;2023-03-01T16:36:17;7.90;60.00
25352;DHT22;13304;48.464;8.712;2023-03-01T16:38:43;7.80;60.00
25352;DHT22;13304;48.464;8.712;2023-03-01T16:41:14;7.70;60.00
25352;DHT22;13304;48.464;8.712;2023-03-01T16:43:40;7.70;60.20
25352;DHT22;13304;48.464;8.712;2023-03-01T16:46:18;7.70;60.30
25352;DHT22;13304;48.464;8.712;2023-03-01T16:48:45;7.60;60.20
25352;DHT22;13304;48.464;8.712;2023-03-01T16:51:11;7.50;60.30
25352;DHT22;13304;48.464;8.712;2023-03-01T16:53:38;7.60;60.60
25352;DHT22;13304;48.464;8.712;2023-03-01T16:56:07;7.50;60.70
25352;DHT22;13304;48.464;8.712;2023-03-01T16:58:34;7.40;61.50
25352;DHT22;13304;48.464;8.712;2023-03-01T17:01:05;7.40;61.40
25352;DHT22;13304;48.464;8.712;2023-03-01T17:03:32;7.40;60.90
25352;DHT22;13304;48.464;8.712;2023-03-01T17:06:02;7.40;61.00
25352;DHT22;13304;48.464;8.712;2023-03-01T17:08:27;7.30;61.00
25352;DHT22;13304;48.464;8.712;2023-03-01T17:10:53;7.30;61.20
25352;DHT22;13304;48.464;8.712;2023-03-01T17:13:19;7.30;61.20
25352;DHT22;13304;48.464;8.712;2023-03-01T17:15:45;7.30;61.30
25352;DHT22;13304;48.464;8.712;2023-03-01T17:18:10;7.20;61.50
25352;DHT22;13304;48.464;8.712;2023-03-01T17:20:36;7.10;61.70
25352;DHT22;13304;48.464;8.712;2023-03-01T17:23:03;7.10;61.80
25352;DHT22;13304;48.464;8.712;2023-03-01T17:25:29;7.00;61.90
25352;DHT22;13304;48.464;8.712;2023-03-01T17:27:55;7.00;62.00
25352;DHT22;13304;48.464;8.712;2023-03-01T17:30:20;6.90;62.00
25352;DHT22;13304;48.464;8.712;2023-03-01T17:32:46;6.90;62.30
25352;DHT22;13304;48.464;8.712;2023-03-01T17:35:12;6.80;62.30
25352;DHT22;13304;48.464;8.712;2023-03-01T17:37:39;6.80;62.40
25352;DHT22;13304;48.464;8.712;2023-03-01T17:40:05;6.80;62.50
25352;DHT22;13304;48.464;8.712;2023-03-01T17:42:32;6.70;62.50
25352;DHT22;13304;48.464;8.712;2023-03-01T17:44:58;6.70;62.50
25352;DHT22;13304;48.464;8.712;2023-03-01T17:47:25;6.70;62.60
25352;DHT22;13304;48.464;8.712;2023-03-01T17:49:50;6.70;62.60
25352;DHT22;13304;48.464;8.712;2023-03-01T17:52:16;6.60;62.50
25352;DHT22;13304;48.464;8.712;2023-03-01T17:54:42;6.60;62.70
25352;DHT22;13304;48.464;8.712;2023-03-01T17:57:08;6.60;62.70
25352;DHT22;13304;48.464;8.712;2023-03-01T17:59:37;6.50;62.90
25352;DHT22;13304;48.464;8.712;2023-03-01T18:02:03;6.50;63.00
25352;DHT22;13304;48.464;8.712;2023-03-01T18:04:29;6.50;62.90
25352;DHT22;13304;48.464;8.712;2023-03-01T18:06:55;6.50;63.10
25352;DHT22;13304;48.464;8.712;2023-03-01T18:09:21;6.50;63.20
25352;DHT22;13304;48.464;8.712;2023-03-01T18:11:47;6.40;63.30
25352;DHT22;13304;48.464;8.712;2023-03-01T18:14:12;6.40;63.60
25352;DHT22;13304;48.464;8.712;2023-03-01T18:16:38;6.40;63.50